Have a Safe July 4th! 

Flight Track Log - Related Links

Times and Time Zones

All times are in EDT time to prevent confusion due to time zone crossing. See the SWA59 flight status page for this flight to view local times or setup timezone preferences in your user account.

Time Position Orientation Groundspeed Altitude Reporting Facility
EDT Latitude Longitude Course Direction KTS MPH feet Rate Location/Type
Tue 08:23:05 PM 38.7597 -90.3450 301° West 157 181 2,700  Level FAA TRACON SMA TRACON (SMA)
Tue 08:23:25 PM 38.7708 -90.3678 302° West 191 220 3,900 3,231 Climbing FAA TRACON SMA TRACON (SMA)
Tue 08:23:44 PM 38.7742 -90.3897 281° West 210 242 4,800 2,923 Climbing FAA TRACON SMA TRACON (SMA)
Tue 08:24:04 PM 38.7661 -90.4119 245° Southwest 225 259 5,800 3,805 Climbing FAA TRACON SMA TRACON (SMA)
Tue 08:24:25 PM 38.7469 -90.4336 221° Southwest 240 276 7,400 4,390 Climbing FAA TRACON SMA TRACON (SMA)
Tue 08:24:45 PM 38.7317 -90.4506 221° Southwest 239 275 8,800 4,154 Climbing FAA TRACON SMA TRACON (SMA)
Tue 08:25:04 PM 38.7161 -90.4675 220° Southwest 238 274 10,100 4,154 Climbing FAA TRACON SMA TRACON (SMA)
Tue 08:25:24 PM 38.6961 -90.4889 220° Southwest 241 277 11,500 3,659 Climbing FAA TRACON SMA TRACON (SMA)
Tue 08:25:45 PM 38.6800 -90.5069 221° Southwest 249 287 12,600 3,220 Climbing FAA TRACON SMA TRACON (SMA)
Tue 08:26:05 PM 38.6633 -90.5250 220° Southwest 254 292 13,700 4,000 Climbing FAA TRACON SMA TRACON (SMA)
Tue 08:26:24 PM 38.6422 -90.5483 221° Southwest 259 298 15,200 4,000 Climbing FAA TRACON SMA TRACON (SMA)
Tue 08:26:44 PM 38.6250 -90.5667 220° Southwest 261 300 16,300 3,220 Climbing FAA TRACON SMA TRACON (SMA)
Tue 08:27:05 PM 38.6078 -90.5856 221° Southwest 264 304 17,400 3,366 Climbing FAA TRACON SMA TRACON (SMA)
Tue 08:27:25 PM 38.5858 -90.6097 221° Southwest 270 311 18,600 3,077 Climbing FAA TRACON SMA TRACON (SMA)
Tue 08:27:44 PM 38.5675 -90.6289 219° Southwest 277 319 19,400 2,462 Climbing FAA TRACON SMA TRACON (SMA)
Tue 08:28:04 PM 38.5492 -90.6500 222° Southwest 287 330 20,200 2,341 Climbing FAA TRACON SMA TRACON (SMA)
Tue 08:28:25 PM 38.5247 -90.6775 221° Southwest 302 348 21,000 2,049 Climbing FAA TRACON SMA TRACON (SMA)
Tue 08:28:45 PM 38.5042 -90.7003 221° Southwest 314 361 21,600 1,846 Climbing FAA TRACON SMA TRACON (SMA)
Tue 08:29:04 PM 38.4822 -90.7231 219° Southwest 327 376 22,200 2,462 Climbing FAA TRACON SMA TRACON (SMA)
Tue 08:29:24 PM 38.4550 -90.7539 222° Southwest 339 390 23,200 3,220 Climbing FAA TRACON SMA TRACON (SMA)
Tue 08:29:45 PM 38.4325 -90.7767 218° Southwest 339 390 24,400 3,073 Climbing FAA TRACON SMA TRACON (SMA)
Tue 08:30:05 PM 38.4125 -90.8019 225° Southwest 332 382 25,300 2,923 Climbing FAA TRACON SMA TRACON (SMA)
Tue 08:30:24 PM 38.3853 -90.8319 221° Southwest 332 382 26,300 2,615 Climbing FAA TRACON SMA TRACON (SMA)
Tue 08:30:44 PM 38.3647 -90.8583 225° Southwest 338 389 27,000 2,195 Climbing FAA TRACON SMA TRACON (SMA)
Tue 08:31:05 PM 38.3378 -90.8897 222° Southwest 341 392 27,800 2,049 Climbing FAA TRACON SMA TRACON (SMA)
Tue 08:31:25 PM 38.3161 -90.9156 223° Southwest 347 399 28,400 1,692 Climbing FAA TRACON SMA TRACON (SMA)
Tue 08:31:44 PM 38.2950 -90.9436 226° Southwest 353 406 28,900 1,692 Climbing FAA TRACON SMA TRACON (SMA)
Tue 08:32:04 PM 38.2728 -90.9714 224° Southwest 359 413 29,500 1,756 Climbing FAA TRACON SMA TRACON (SMA)
Tue 08:32:25 PM 38.2433 -91.0047 222° Southwest 367 422 30,100 1,610 Climbing FAA TRACON SMA TRACON (SMA)
Tue 08:32:45 PM 38.2206 -91.0328 224° Southwest 373 429 30,600 1,350 Climbing FAA TRACON SMA TRACON (SMA)
Tue 08:33:05 PM 38.1958 -91.0606 221° Southwest 379 436 31,000 1,692 Climbing FAA TRACON SMA TRACON (SMA)
Tue 08:33:24 PM 38.1683 -91.0989 228° Southwest 383 441 31,700 1,950 Climbing FAA TRACON SMA TRACON (SMA)
Tue 08:33:45 PM 38.1425 -91.1258 219° Southwest 385 443 32,300 1,756 Climbing FAA TRACON SMA TRACON (SMA)
Tue 08:34:05 PM 38.1186 -91.1544 223° Southwest 386 444 32,900 2,100 Climbing FAA TRACON SMA TRACON (SMA)
Tue 08:34:25 PM 38.0886 -91.1903 223° Southwest 384 442 33,700 2,093 Climbing FAA TRACON SMA TRACON (SMA)
Tue 08:34:48 PM 38.0650 -91.2183 223° Southwest 382 440 34,400 1,857 Climbing FAA TRACON SMA TRACON (SMA)
Tue 08:35:07 PM 38.0411 -91.2461 222° Southwest 379 436 35,000 1,688 Climbing FAA TRACON SMA TRACON (SMA)
Tue 08:35:52 PM 37.9883 -91.3608 240° Southwest 377 434 36,200 1,389 Climbing Kansas City Center
Tue 08:36:55 PM 37.9108 -91.4519 223° Southwest 378 435 37,500 1,258 Climbing Kansas City Center
Tue 08:37:56 PM 37.8289 -91.5453 222° Southwest 382 440 38,800 1,240 Climbing Kansas City Center
Tue 08:38:56 PM 37.7497 -91.6378 223° Southwest 384 442 40,000 581 Climbing Kansas City Center
Tue 08:40:00 PM 37.6717 -91.7300 223° Southwest 382 440 40,000  Level Kansas City Center
Tue 08:41:01 PM 37.5936 -91.8214 223° Southwest 380 437 40,000  Level Kansas City Center
Tue 08:42:01 PM 37.5147 -91.9117 222° Southwest 380 437 40,000  Level Kansas City Center
Tue 08:43:02 PM 37.4378 -92.0006 223° Southwest 374 430 40,000  Level Kansas City Center
Tue 08:44:05 PM 37.3603 -92.0903 223° Southwest 375 432 40,000  Level Kansas City Center
Tue 08:45:07 PM 37.2672 -92.1961 222° Southwest 374 430 40,000  Level Kansas City Center
Tue 08:46:07 PM 37.1894 -92.2872 223° Southwest 376 433 40,000  Level Kansas City Center
Tue 08:47:10 PM 37.1103 -92.3769 222° Southwest 380 437 40,000  Level Kansas City Center
Tue 08:48:10 PM 37.0322 -92.4658 222° Southwest 378 435 40,000  Level Kansas City Center
Tue 08:49:14 PM 36.9536 -92.5558 222° Southwest 380 437 40,000  Level Kansas City Center
Tue 08:50:12 PM 36.8750 -92.6431 222° Southwest 378 435 40,000  Level Kansas City Center
Tue 08:50:34 PM 36.8417 -92.6822 223° Southwest 379 436 40,000  Level Memphis Center
Tue 08:51:34 PM 36.7650 -92.7656 221° Southwest 374 430 40,000  Level Memphis Center
Tue 08:52:34 PM 36.6903 -92.8539 223° Southwest 374 430 40,000  Level Memphis Center
Tue 08:53:34 PM 36.6136 -92.9394 222° Southwest 374 430 40,000  Level Memphis Center
Tue 08:54:34 PM 36.5389 -93.0222 222° Southwest 369 425 40,000  Level Memphis Center
Tue 08:55:34 PM 36.4619 -93.1050 221° Southwest 369 425 40,000  Level Memphis Center
Tue 08:56:34 PM 36.3914 -93.1850 222° Southwest 369 425 40,000  Level Memphis Center
Tue 08:57:34 PM 36.3125 -93.2672 220° Southwest 369 425 40,000  Level Memphis Center
Tue 08:58:34 PM 36.2353 -93.3547 222° Southwest 369 425 40,000  Level Memphis Center
Tue 08:59:34 PM 36.1581 -93.4392 221° Southwest 369 425 40,000  Level Memphis Center
Tue 09:00:34 PM 36.0789 -93.5261 222° Southwest 369 425 40,000  Level Memphis Center
Tue 09:01:34 PM 35.9994 -93.6128 221° Southwest 375 432 40,000  Level Memphis Center
Tue 09:02:34 PM 35.9200 -93.6994 221° Southwest 375 432 40,000  Level Memphis Center
Tue 09:03:34 PM 35.8428 -93.7808 221° Southwest 370 426 40,000  Level Memphis Center
Tue 09:04:34 PM 35.7631 -93.8669 221° Southwest 370 426 40,000  Level Memphis Center
Tue 09:05:34 PM 35.6878 -93.9508 222° Southwest 370 426 40,000  Level Memphis Center
Tue 09:06:34 PM 35.6081 -94.0342 220° Southwest 370 426 40,000  Level Memphis Center
Tue 09:07:34 PM 35.5306 -94.1175 221° Southwest 370 426 40,000  Level Memphis Center
Tue 09:08:34 PM 35.4550 -94.2006 222° Southwest 370 426 40,000  Level Memphis Center
Tue 09:09:34 PM 35.3794 -94.2811 221° Southwest 370 426 40,000  Level Memphis Center
Tue 09:10:34 PM 35.3017 -94.3667 222° Southwest 370 426 40,000  Level Memphis Center
Tue 09:11:34 PM 35.2261 -94.4469 221° Southwest 370 426 40,000  Level Memphis Center
Tue 09:13:07 PM 35.1094 -94.5761 222° Southwest 376 433 40,000  Level Fort Worth Center
Tue 09:14:07 PM 35.0319 -94.6600 222° Southwest 376 433 40,000  Level Fort Worth Center
Tue 09:15:07 PM 34.9417 -94.7286 212° Southwest 382 440 40,000  Level Fort Worth Center
Tue 09:16:07 PM 34.8294 -94.7550 191° South 384 442 40,000  Level Fort Worth Center
Tue 09:17:07 PM 34.7172 -94.7761 189° South 400 460 40,000 -100 Level Fort Worth Center
Tue 09:18:07 PM 34.6031 -94.7997 190° South 412 474 39,800 -650 Descending Fort Worth Center
Tue 09:19:07 PM 34.4931 -94.8233 190° South 417 480 38,700 -1,000 Descending Fort Worth Center
Tue 09:20:07 PM 34.3828 -94.8417 188° South 412 474 37,800 -1,000 Descending Fort Worth Center
Tue 09:21:07 PM 34.2728 -94.8628 189° South 412 474 36,700 -1,500 Descending Fort Worth Center
Tue 09:22:07 PM 34.1606 -94.8861 190° South 407 468 34,800 -2,050 Descending Fort Worth Center
Tue 09:23:07 PM 34.0483 -94.9094 190° South 407 468 32,600 -1,550 Descending Fort Worth Center
Tue 09:24:07 PM 33.9319 -94.9403 192° South 412 474 31,700 -950 Descending Fort Worth Center
Tue 09:25:07 PM 33.8222 -94.9808 197° South 417 480 30,700 -1,350 Descending Fort Worth Center
Tue 09:26:07 PM 33.7722 -95.0972 243° Southwest 368 423 29,000 -1,850 Descending Fort Worth Center
Tue 09:27:07 PM 33.7242 -95.2133 244° Southwest 379 436 27,000 -1,500 Descending Fort Worth Center
Tue 09:28:07 PM 33.6761 -95.3317 244° Southwest 385 443 26,000 -800 Descending Fort Worth Center
Tue 09:29:07 PM 33.6319 -95.4425 244° Southwest 390 449 25,400 -750 Descending Fort Worth Center
Tue 09:30:07 PM 33.5858 -95.5533 243° Southwest 385 443 24,500 -1,050 Descending Fort Worth Center
Tue 09:31:07 PM 33.5394 -95.6714 245° Southwest 372 428 23,300 -1,600 Descending Fort Worth Center
Tue 09:32:07 PM 33.4989 -95.7644 242° Southwest 355 409 21,300 -2,350 Descending Fort Worth Center
Tue 09:33:07 PM 33.4544 -95.8772 245° Southwest 350 403 18,600 -2,450 Descending Fort Worth Center
Tue 09:34:07 PM 33.4178 -95.9650 243° Southwest 338 389 16,400 -2,450 Descending Fort Worth Center
Tue 09:35:07 PM 33.3753 -96.0703 244° Southwest 323 372 13,700 -2,430 Descending Fort Worth Center
Tue 09:36:08 PM 33.3386 -96.1528 242° Southwest 318 366 11,500 -1,750 Descending Fort Worth Center
Tue 09:37:07 PM 33.2978 -96.2503 243° Southwest 304 350 10,200 -1,210 Descending Fort Worth Center
Tue 09:38:07 PM 33.2692 -96.3203 244° Southwest 281 323 9,100 -1,050 Descending Fort Worth Center
Tue 09:39:07 PM 33.2239 -96.3953 234° Southwest 261 300 8,100 -950 Descending Fort Worth Center
Tue 09:40:07 PM 33.1825 -96.4603 233° Southwest 255 293 7,200 -600 Descending Fort Worth Center
Tue 09:41:07 PM 33.1222 -96.4933 205° Southwest 248 285 6,900 -600 Descending Fort Worth Center
Tue 09:42:07 PM 33.0619 -96.5236 203° Southwest 238 274 6,000 -450 Descending Fort Worth Center
Tue 09:43:07 PM 33.0058 -96.5514 203° Southwest 232 267 6,000  Level Fort Worth Center
Tue 09:44:07 PM 32.9475 -96.5817 204° Southwest 232 267 6,000  Level Fort Worth Center
Tue 09:45:07 PM 32.8956 -96.6094 204° Southwest 232 267 6,000 -550 Level Fort Worth Center
Tue 09:46:07 PM 32.8331 -96.6419 204° Southwest 232 267 4,900 -1,282 Descending Fort Worth Center
Tue 09:46:50 PM 32.8000 -96.6667 212° Southwest 218 251 3,800 -1,156 Descending Dallas / Fort Worth TRACON
Tue 09:47:56 PM 32.7333 -96.6833 192° South 210 242 2,800 -650 Descending Dallas / Fort Worth TRACON
Tue 09:48:50 PM 32.7500 -96.7333 292° West 167 192 2,500 -211 Descending Dallas / Fort Worth TRACON
Tue 09:49:50 PM 32.7667 -96.7667 301° West 144 166 2,400 -400 Descending Dallas / Fort Worth TRACON
Tue 09:50:50 PM 32.8000 -96.7833 337° Northwest 131 151 1,700 -678 Descending Dallas / Fort Worth TRACON
Tue 09:51:45 PM 32.8167 -96.8167 301° West 127 146 1,100 -655 Descending Dallas / Fort Worth TRACON
Tue 09:53:00 PM 32.8333 -96.8500 288° West  Level FlightAware Approximate
Tue 10:00:00 PM 32.8471 -96.8518 288° West  Level Estimated

Login

Don't have an account? Register now (free) for customized features, flight alerts, and more!